Time;durP1;ratioP1;P1;durP2;ratioP2;P2;SDS_P1;SDS_P2;PMS_P1;PMS_P2;Temp;Humidity;BMP_temperature;BMP_pressure;BME280_temperature;BME280_humidity;BME280_pressure;Samples;Min_cycle;Max_cycle;Signal;HPM_P1;HPM_P2
2023/08/24 00:02:00;;;;;;;8.97;6.50;;;;;;;11.54;100.00;101315.31;4957308;29;20038;-62
2023/08/24 00:04:26;;;;;;;10.37;6.10;;;;;;;11.59;100.00;101326.41;4957272;29;20102;-64
2023/08/24 00:06:51;;;;;;;8.00;6.27;;;;;;;11.30;100.00;101276.00;4956893;29;20034;-66
2023/08/24 00:09:17;;;;;;;5.83;5.20;;;;;;;11.53;100.00;101313.66;4956907;29;20031;-62
2023/08/24 00:11:42;;;;;;;8.67;5.93;;;;;;;11.55;100.00;101309.00;4956788;29;20047;-65
2023/08/24 00:14:09;;;;;;;9.93;5.70;;;;;;;11.65;100.00;101317.75;4956660;29;20039;-64
2023/08/24 00:16:34;;;;;;;9.77;6.13;;;;;;;11.64;100.00;101313.41;4956614;29;20038;-64
2023/08/24 00:19:00;;;;;;;10.50;6.77;;;;;;;11.84;100.00;101320.25;4956101;28;20126;-64
2023/08/24 00:21:25;;;;;;;9.07;6.00;;;;;;;11.86;100.00;101320.94;4940810;29;20118;-65
2023/08/24 00:23:52;;;;;;;14.93;6.67;;;;;;;11.98;100.00;101321.50;4963064;29;20460;-64
2023/08/24 00:26:18;;;;;;;10.93;7.10;;;;;;;12.01;100.00;101332.69;4962989;29;20030;-64
2023/08/24 00:28:44;;;;;;;10.60;6.60;;;;;;;11.92;100.00;101309.63;4957645;29;20556;-67
2023/08/24 00:31:09;;;;;;;11.37;6.87;;;;;;;12.04;100.00;101327.03;4924697;29;20039;-66
2023/08/24 00:33:35;;;;;;;9.80;7.50;;;;;;;12.00;100.00;101325.69;4956555;29;20038;-64
2023/08/24 00:36:02;;;;;;;10.47;7.60;;;;;;;11.95;100.00;101328.00;4956695;29;20471;-65
2023/08/24 00:38:27;;;;;;;14.00;8.03;;;;;;;11.76;100.00;101301.47;4957363;29;20027;-65
2023/08/24 00:40:53;;;;;;;10.57;7.50;;;;;;;11.92;100.00;101335.50;4957703;29;20493;-64
2023/08/24 00:43:23;;;;;;;12.70;7.50;;;;;;;11.84;100.00;101322.91;4957002;29;20075;-64
2023/08/24 00:45:53;;;;;;;12.63;8.03;;;;;;;11.91;100.00;101326.66;4956341;29;20035;-65
2023/08/24 00:48:21;;;;;;;11.80;7.30;;;;;;;11.90;100.00;101322.31;4956427;29;20033;-64
2023/08/24 00:50:46;;;;;;;9.03;7.27;;;;;;;11.93;100.00;101330.00;4956049;29;20041;-64
2023/08/24 00:53:12;;;;;;;10.77;6.97;;;;;;;11.98;100.00;101322.34;4938803;29;20739;-62
2023/08/24 00:55:38;;;;;;;13.20;7.20;;;;;;;12.06;100.00;101335.72;4956040;29;20455;-65
2023/08/24 00:58:04;;;;;;;10.00;6.70;;;;;;;12.06;100.00;101319.72;4956049;28;20360;-63
2023/08/24 01:00:30;;;;;;;10.37;7.20;;;;;;;12.22;100.00;101344.84;4955980;29;20459;-65
2023/08/24 01:02:55;;;;;;;10.37;6.80;;;;;;;12.10;100.00;101313.06;4939017;29;20023;-64
2023/08/24 01:05:21;;;;;;;11.77;6.77;;;;;;;12.19;100.00;101321.97;4955999;29;20123;-64
2023/08/24 01:07:47;;;;;;;15.10;7.50;;;;;;;12.31;100.00;101335.84;4955771;29;20026;-65
2023/08/24 01:10:13;;;;;;;11.80;7.07;;;;;;;12.24;100.00;101313.47;4955634;29;20082;-65
2023/08/24 01:12:50;;;;;;;10.83;6.87;;;;;;;12.42;100.00;101343.56;4955480;29;20031;-63
2023/08/24 01:15:39;;;;;;;11.00;7.10;;;;;;;12.12;100.00;101301.38;4938472;29;20027;-66
2023/08/24 01:18:08;;;;;;;15.37;7.67;;;;;;;12.29;100.00;101330.69;4944948;29;20043;-64
2023/08/24 01:20:36;;;;;;;14.93;7.10;;;;;;;12.27;100.00;101322.00;4955331;29;20126;-65
2023/08/24 01:23:15;;;;;;;9.63;6.60;;;;;;;12.12;100.00;101286.19;4955269;29;20490;-64
2023/08/24 01:25:50;;;;;;;9.83;6.67;;;;;;;12.42;100.00;101335.56;4955538;29;20454;-63
2023/08/24 01:28:17;;;;;;;11.87;7.53;;;;;;;12.34;100.00;101316.84;4938170;29;20042;-62
2023/08/24 01:30:43;;;;;;;14.53;7.80;;;;;;;12.41;100.00;101317.88;4954454;28;20030;-64
2023/08/24 01:33:11;;;;;;;10.13;6.83;;;;;;;11.59;100.00;101187.66;4955153;29;20031;-64
2023/08/24 01:35:37;;;;;;;;;;;;;;;12.50;100.00;101332.94;4955555;29;20023;-63
2023/08/24 01:38:04;;;;;;;16.10;8.30;;;;;;;12.49;100.00;101325.09;4955288;29;19918;-64
2023/08/24 01:40:53;;;;;;;11.17;7.60;;;;;;;12.52;100.00;101327.44;4955050;29;20463;-65
2023/08/24 01:43:21;;;;;;;13.63;7.60;;;;;;;12.42;100.00;101316.88;4955075;29;20147;-64
2023/08/24 01:45:48;;;;;;;10.13;7.40;;;;;;;12.45;100.00;101323.75;4954903;29;20057;-65
2023/08/24 01:48:14;;;;;;;11.97;7.33;;;;;;;12.37;100.00;101320.03;4954888;29;20589;-66
2023/08/24 01:50:41;;;;;;;11.20;7.40;;;;;;;12.43;100.00;101320.38;4954739;29;20031;-64
2023/08/24 01:53:06;;;;;;;11.73;7.53;;;;;;;12.16;100.00;101287.56;4954837;29;20463;-63
2023/08/24 01:55:32;;;;;;;12.80;7.50;;;;;;;12.44;100.00;101343.44;4955048;29;20038;-64
2023/08/24 01:57:58;;;;;;;17.07;9.00;;;;;;;12.31;100.00;101318.00;4954917;29;20094;-62
2023/08/24 02:00:23;;;;;;;17.17;9.30;;;;;;;12.39;100.00;101338.56;4954566;29;20043;-65
2023/08/24 02:02:49;;;;;;;14.93;8.87;;;;;;;12.37;100.00;101332.53;4954789;28;20039;-63
2023/08/24 02:05:14;;;;;;;13.77;9.50;;;;;;;12.32;100.00;101324.19;4954653;29;20042;-66
2023/08/24 02:07:40;;;;;;;15.70;10.03;;;;;;;12.26;100.00;101325.66;4954780;29;20066;-64
2023/08/24 02:10:06;;;;;;;11.07;9.77;;;;;;;12.31;100.00;101331.34;4954497;29;20055;-65
2023/08/24 02:12:32;;;;;;;15.17;10.27;;;;;;;12.33;100.00;101325.84;4954489;29;20181;-65
2023/08/24 02:14:58;;;;;;;18.03;10.30;;;;;;;12.38;100.00;101331.53;4954521;29;20501;-62
2023/08/24 02:17:23;;;;;;;19.07;10.27;;;;;;;12.46;100.00;101339.63;4954661;29;20042;-65
2023/08/24 02:19:49;;;;;;;19.63;10.30;;;;;;;12.41;100.00;101323.22;4954662;29;20031;-63
2023/08/24 02:22:14;;;;;;;21.63;11.53;;;;;;;12.52;100.00;101335.47;4954381;29;20066;-67
2023/08/24 02:24:40;;;;;;;23.43;9.80;;;;;;;12.40;100.00;101318.88;4954624;29;20035;-62
2023/08/24 02:27:05;;;;;;;25.47;11.97;;;;;;;12.62;100.00;101341.50;4954723;28;20159;-65
2023/08/24 02:29:31;;;;;;;20.63;10.43;;;;;;;12.63;100.00;101344.00;4954481;29;20031;-63
2023/08/24 02:31:56;;;;;;;39.23;16.03;;;;;;;12.64;100.00;101340.34;4954317;29;20081;-66
2023/08/24 02:34:22;;;;;;;29.43;14.30;;;;;;;12.67;100.00;101337.34;4937449;29;20034;-65
2023/08/24 02:36:47;;;;;;;35.57;15.87;;;;;;;12.70;100.00;101339.69;4954322;29;20078;-65
2023/08/24 02:39:13;;;;;;;30.63;13.77;;;;;;;12.68;100.00;101324.81;4954545;29;20156;-64
2023/08/24 02:41:39;;;;;;;29.90;13.23;;;;;;;12.51;100.00;101305.22;4954120;28;20031;-65
2023/08/24 02:44:04;;;;;;;25.37;11.33;;;;;;;12.56;100.00;101316.25;4954016;28;20118;-66
2023/08/24 02:46:30;;;;;;;23.70;9.90;;;;;;;12.71;100.00;101330.66;4954160;29;20023;-63
2023/08/24 02:48:55;;;;;;;25.07;12.90;;;;;;;12.70;100.00;101320.97;4954008;29;20035;-64
2023/08/24 02:51:22;;;;;;;19.07;9.83;;;;;;;12.82;100.00;101336.72;4954274;29;20027;-65
2023/08/24 02:53:49;;;;;;;26.27;11.03;;;;;;;12.75;100.00;101312.50;4954062;29;20027;-64
2023/08/24 02:56:15;;;;;;;27.93;11.03;;;;;;;12.86;100.00;101330.03;4953876;29;20491;-65
2023/08/24 02:58:40;;;;;;;15.40;9.33;;;;;;;12.49;100.00;101267.16;4953873;29;20087;-65
2023/08/24 03:01:09;;;;;;;21.13;9.87;;;;;;;12.94;100.00;101344.25;4953979;29;20090;-64
2023/08/24 03:03:36;;;;;;;23.50;9.93;;;;;;;12.89;100.00;101332.38;4936781;29;20078;-62
2023/08/24 03:06:04;;;;;;;18.73;10.20;;;;;;;12.91;100.00;101330.38;4953908;29;20376;-66
2023/08/24 03:08:30;;;;;;;15.40;8.77;;;;;;;12.97;100.00;101340.41;4953991;29;20034;-65
2023/08/24 03:10:56;;;;;;;15.63;8.70;;;;;;;12.96;100.00;101341.41;4923586;29;20047;-64
2023/08/24 03:13:22;;;;;;;19.40;8.10;;;;;;;12.93;100.00;101339.06;4953925;28;20038;-65
2023/08/24 03:15:48;;;;;;;21.17;8.47;;;;;;;12.93;100.00;101344.41;4954002;28;20035;-65
2023/08/24 03:18:15;;;;;;;11.47;7.43;;;;;;;12.96;100.00;101344.94;4953941;28;20106;-62
2023/08/24 03:20:40;;;;;;;19.20;9.77;;;;;;;12.95;100.00;101331.72;4954087;28;20031;-65
2023/08/24 03:23:06;;;;;;;13.57;8.57;;;;;;;13.03;100.00;101331.75;4952862;29;20090;-62
2023/08/24 03:25:37;;;;;;;14.47;8.83;;;;;;;13.15;100.00;101341.13;4954677;28;20475;-65
2023/08/24 03:28:03;;;;;;;14.67;8.40;;;;;;;13.00;100.00;101319.53;4955601;28;20024;-64
2023/08/24 03:30:28;;;;;;;13.07;7.93;;;;;;;13.24;100.00;101345.50;4954431;28;20482;-64
2023/08/24 03:32:54;;;;;;;21.17;9.73;;;;;;;13.30;100.00;101347.53;4954283;28;20034;-66
2023/08/24 03:35:19;;;;;;;8.93;6.93;;;;;;;13.16;100.00;101312.53;4953838;28;20419;-62
2023/08/24 03:37:45;;;;;;;15.73;7.67;;;;;;;13.43;100.00;101351.56;4953779;28;20462;-65
2023/08/24 03:40:12;;;;;;;14.63;8.13;;;;;;;13.47;100.00;101348.38;4953975;28;20040;-64
2023/08/24 03:42:37;;;;;;;13.60;7.20;;;;;;;13.46;100.00;101340.50;4955113;28;20054;-62
2023/08/24 03:45:03;;;;;;;13.70;6.50;;;;;;;13.55;100.00;101351.03;4955761;28;20383;-65
2023/08/24 03:47:28;;;;;;;10.53;5.70;;;;;;;12.97;100.00;101260.22;4955646;28;20035;-63
2023/08/24 03:49:54;;;;;;;13.73;6.33;;;;;;;13.60;100.00;101353.25;4955726;28;20039;-64
2023/08/24 03:52:20;;;;;;;12.77;5.87;;;;;;;13.58;100.00;101349.88;4955472;28;20031;-65
2023/08/24 03:54:46;;;;;;;12.00;6.93;;;;;;;13.61;100.00;101353.06;4955704;28;20039;-63
2023/08/24 03:57:11;;;;;;;13.10;7.60;;;;;;;13.54;100.00;101344.00;4958812;28;20027;-65
2023/08/24 03:59:37;;;;;;;10.13;6.77;;;;;;;13.59;100.00;101347.06;4958708;28;20069;-66
2023/08/24 04:02:03;;;;;;;12.00;6.50;;;;;;;13.56;100.00;101343.84;4958553;28;20376;-65
2023/08/24 04:04:30;;;;;;;11.63;6.70;;;;;;;13.55;100.00;101351.03;4958312;28;20035;-63
2023/08/24 04:06:55;;;;;;;9.43;5.83;;;;;;;13.55;100.00;101355.56;4941051;29;20019;-63
2023/08/24 04:09:21;;;;;;;11.17;6.17;;;;;;;13.61;100.00;101354.91;4957871;28;20023;-63
2023/08/24 04:11:46;;;;;;;9.60;7.17;;;;;;;13.58;100.00;101347.19;4958358;28;20051;-62
2023/08/24 04:14:11;;;;;;;12.03;5.87;;;;;;;13.68;100.00;101355.91;4957722;29;20395;-67
2023/08/24 04:16:37;;;;;;;7.30;4.97;;;;;;;13.76;100.00;101349.69;4958874;29;20031;-64
2023/08/24 04:19:03;;;;;;;7.33;5.43;;;;;;;13.82;100.00;101347.16;4957692;29;20031;-67
2023/08/24 04:21:28;;;;;;;9.77;5.23;;;;;;;13.88;100.00;101354.56;4940004;29;20078;-64
2023/08/24 04:23:54;;;;;;;15.67;5.90;;;;;;;13.98;100.00;101345.50;4957002;29;20395;-65
2023/08/24 04:26:19;;;;;;;6.27;4.63;;;;;;;14.23;100.00;101364.00;4956949;29;20415;-63
2023/08/24 04:28:45;;;;;;;7.97;4.43;;;;;;;14.39;97.79;101363.09;4957167;29;20031;-66
2023/08/24 04:31:10;;;;;;;8.13;4.40;;;;;;;14.44;95.87;101352.72;4956805;29;20042;-64
2023/08/24 04:33:36;;;;;;;9.07;4.97;;;;;;;14.59;95.34;101354.69;4958096;29;20486;-65
2023/08/24 04:36:05;;;;;;;7.00;4.13;;;;;;;14.65;92.71;101348.63;4964140;29;20032;-63
2023/08/24 04:38:31;;;;;;;7.77;4.20;;;;;;;14.81;91.88;101370.03;4959255;29;20035;-64
2023/08/24 04:40:56;;;;;;;7.83;4.37;;;;;;;14.54;89.74;101331.94;4956811;29;20043;-65
2023/08/24 04:43:23;;;;;;;5.33;4.30;;;;;;;14.68;89.25;101362.53;4956873;29;20019;-63
2023/08/24 04:45:52;;;;;;;7.17;4.83;;;;;;;14.51;89.14;101347.53;4957449;29;20027;-65
2023/08/24 04:48:18;;;;;;;;;;;;;;;14.80;89.29;101365.66;4958190;29;20027;-63
2023/08/24 04:50:45;;;;;;;5.63;3.70;;;;;;;14.86;88.90;101368.47;4958372;29;20453;-66
2023/08/24 04:53:12;;;;;;;8.00;4.03;;;;;;;14.95;87.89;101366.56;4957079;29;20035;-64
2023/08/24 04:55:38;;;;;;;7.57;3.50;;;;;;;15.07;87.91;101369.72;4962583;29;20051;-63
2023/08/24 04:58:03;;;;;;;4.43;3.50;;;;;;;15.14;87.96;101349.19;4963315;29;20038;-64
2023/08/24 05:00:29;;;;;;;6.13;4.00;;;;;;;15.32;86.80;101352.41;4978882;29;20115;-66
2023/08/24 05:02:54;;;;;;;5.37;3.93;;;;;;;15.50;86.18;101358.31;4968022;29;20042;-65
2023/08/24 05:05:20;;;;;;;5.80;4.97;;;;;;;15.54;85.75;101345.34;4956082;28;20143;-65
2023/08/24 05:07:46;;;;;;;7.73;3.90;;;;;;;15.77;86.07;101356.94;4940181;29;20384;-62
2023/08/24 05:10:11;;;;;;;6.47;4.23;;;;;;;15.68;84.77;101327.66;4963441;29;20519;-68
2023/08/24 05:12:36;;;;;;;7.23;4.17;;;;;;;15.76;82.70;101341.84;4953161;29;20099;-63
2023/08/24 05:15:04;;;;;;;6.70;3.60;;;;;;;15.58;83.08;101335.97;4971699;29;20039;-66
2023/08/24 05:17:31;;;;;;;6.03;3.87;;;;;;;15.59;83.70;101356.41;4961246;29;20113;-65
2023/08/24 05:19:57;;;;;;;5.37;4.10;;;;;;;15.37;84.03;101322.38;4977191;29;20086;-66
2023/08/24 05:22:22;;;;;;;7.20;4.37;;;;;;;15.36;85.30;101344.84;4958310;29;20031;-65
2023/08/24 05:24:48;;;;;;;7.40;5.30;;;;;;;15.19;85.61;101342.28;4976368;29;20035;-64
2023/08/24 05:27:14;;;;;;;9.73;7.03;;;;;;;14.85;85.41;101323.06;4977868;29;20016;-63
2023/08/24 05:29:39;;;;;;;7.97;4.47;;;;;;;14.73;86.04;101325.28;4978063;29;20035;-63
2023/08/24 05:32:05;;;;;;;11.77;5.00;;;;;;;14.62;87.01;101330.22;4961930;28;20023;-65
2023/08/24 05:34:31;;;;;;;10.40;4.90;;;;;;;14.72;87.01;101337.03;4959053;28;20070;-62
2023/08/24 05:36:57;;;;;;;6.87;5.47;;;;;;;14.73;85.80;101325.28;4974027;29;20035;-65
2023/08/24 05:39:23;;;;;;;7.17;4.40;;;;;;;14.78;86.11;101325.63;4975101;29;20024;-64
2023/08/24 05:41:52;;;;;;;8.77;4.63;;;;;;;14.87;85.53;101326.41;4971563;29;20027;-65
2023/08/24 05:44:19;;;;;;;7.43;4.30;;;;;;;14.89;86.25;101345.81;4971532;29;20019;-64
2023/08/24 05:46:45;;;;;;;14.47;4.70;;;;;;;14.75;85.74;101333.19;4973773;28;20066;-65
2023/08/24 05:49:11;;;;;;;8.67;5.23;;;;;;;14.83;86.70;101341.19;4975008;29;20031;-63
2023/08/24 05:51:36;;;;;;;14.10;4.30;;;;;;;14.95;86.21;101350.47;4976457;29;20037;-66
2023/08/24 05:54:02;;;;;;;9.43;4.67;;;;;;;15.06;85.74;101351.94;4979363;28;20031;-65
2023/08/24 05:56:27;;;;;;;9.33;4.53;;;;;;;15.08;85.27;101325.78;4979006;29;20023;-64
2023/08/24 05:58:54;;;;;;;9.10;5.23;;;;;;;15.12;85.55;101324.41;4979256;29;20054;-65
2023/08/24 06:01:20;;;;;;;11.67;4.43;;;;;;;15.15;84.63;101335.59;4979523;28;20046;-66
2023/08/24 06:03:45;;;;;;;9.10;3.80;;;;;;;15.21;84.46;101338.59;4979550;28;20027;-66
2023/08/24 06:06:11;;;;;;;7.63;4.20;;;;;;;15.18;84.87;101316.47;4979581;28;20022;-65
2023/08/24 06:08:36;;;;;;;6.50;3.90;;;;;;;15.39;84.89;101333.75;4979574;28;20333;-64
2023/08/24 06:11:02;;;;;;;9.33;4.80;;;;;;;15.40;84.69;101325.53;4979214;28;20035;-64
2023/08/24 06:13:27;;;;;;;10.77;4.90;;;;;;;15.45;83.35;101341.09;4979459;28;20066;-64
2023/08/24 06:15:57;;;;;;;9.17;4.57;;;;;;;15.45;83.84;101333.03;4979685;28;20031;-66
2023/08/24 06:18:22;;;;;;;17.80;11.40;;;;;;;15.31;82.96;101296.22;4978249;28;20138;-65
2023/08/24 06:20:50;;;;;;;8.50;4.70;;;;;;;15.48;83.32;101314.72;4978399;28;20451;-65
2023/08/24 06:23:17;;;;;;;7.03;4.45;;;;;;;15.75;83.27;101342.03;4977658;28;20031;-66
2023/08/24 06:25:43;;;;;;;11.83;4.60;;;;;;;15.70;82.26;101337.22;4978179;29;20027;-65
2023/08/24 06:28:09;;;;;;;8.17;4.47;;;;;;;15.83;82.95;101344.63;4971692;29;20035;-65
2023/08/24 06:30:42;;;;;;;8.43;4.10;;;;;;;16.00;81.63;101345.31;4969691;29;20026;-63
2023/08/24 06:33:10;;;;;;;7.00;4.10;;;;;;;16.10;80.74;101335.94;4972619;29;20031;-63
2023/08/24 06:35:36;;;;;;;11.27;5.20;;;;;;;16.22;80.01;101346.25;4972406;29;20092;-62
2023/08/24 06:38:03;;;;;;;5.87;4.00;;;;;;;16.17;79.38;101349.47;4972092;29;20383;-65
2023/08/24 06:40:30;;;;;;;8.93;5.10;;;;;;;16.09;80.77;101345.03;4961301;29;20095;-62
2023/08/24 06:42:56;;;;;;;13.53;5.43;;;;;;;16.14;79.91;101335.56;4978138;29;20035;-66
2023/08/24 06:45:21;;;;;;;11.53;4.40;;;;;;;16.29;80.40;101353.38;4978464;28;20031;-65
2023/08/24 06:47:47;;;;;;;10.43;4.43;;;;;;;16.43;79.84;101347.16;4978510;28;20046;-66
2023/08/24 06:50:12;;;;;;;8.73;3.90;;;;;;;16.56;79.91;101335.75;4978419;28;20023;-65
2023/08/24 06:52:38;;;;;;;9.17;4.00;;;;;;;16.63;79.81;101338.50;4978346;28;20050;-64
2023/08/24 06:55:04;;;;;;;12.07;5.38;;;;;;;16.69;80.36;101340.47;4978487;28;20042;-64
2023/08/24 06:57:29;;;;;;;8.47;4.40;;;;;;;16.58;80.11;101343.63;4978555;28;20047;-64
2023/08/24 06:59:55;;;;;;;5.30;3.83;;;;;;;16.59;81.09;101345.28;4978304;28;20011;-66
2023/08/24 07:02:21;;;;;;;10.13;4.47;;;;;;;16.68;79.57;101349.56;4978465;28;20142;-65
2023/08/24 07:04:46;;;;;;;11.10;4.43;;;;;;;16.53;78.37;101340.69;4978529;28;20027;-65
2023/08/24 07:07:12;;;;;;;12.47;5.30;;;;;;;16.48;80.09;101348.44;4978682;29;20027;-63
2023/08/24 07:09:37;;;;;;;10.47;5.20;;;;;;;16.39;80.84;101336.97;4978574;28;20023;-63
2023/08/24 07:12:06;;;;;;;10.77;4.93;;;;;;;16.38;82.04;101349.56;4978188;28;20024;-63
2023/08/24 07:14:32;;;;;;;6.87;5.60;;;;;;;16.25;82.50;101337.81;4978358;28;20031;-66
2023/08/24 07:16:57;;;;;;;7.77;3.90;;;;;;;16.36;80.89;101365.06;4978563;28;20050;-64
2023/08/24 07:19:23;;;;;;;6.27;4.70;;;;;;;16.26;81.68;101361.81;4978520;28;20019;-65
2023/08/24 07:21:48;;;;;;;10.63;4.27;;;;;;;16.32;81.94;101361.06;4978779;28;20031;-65
2023/08/24 07:24:13;;;;;;;12.47;4.03;;;;;;;16.48;81.54;101359.19;4977817;28;20028;-65
2023/08/24 07:26:43;;;;;;;7.87;4.07;;;;;;;16.53;81.77;101335.31;4978581;28;20042;-65
2023/08/24 07:29:09;;;;;;;11.50;4.85;;;;;;;16.63;80.37;101346.59;4962723;29;20395;-65
2023/08/24 07:31:34;;;;;;;6.73;4.40;;;;;;;16.62;80.73;101367.25;4982428;28;20058;-64
2023/08/24 07:34:00;;;;;;;7.83;4.73;;;;;;;16.74;81.55;101364.94;4982513;28;20015;-64
2023/08/24 07:36:25;;;;;;;8.27;5.35;;;;;;;16.59;80.70;101321.94;4980754;28;20038;-65
2023/08/24 07:38:51;;;;;;;9.68;4.60;;;;;;;16.82;81.01;101355.97;4966650;29;20494;-62
2023/08/24 07:41:18;;;;;;;9.37;5.23;;;;;;;16.80;81.71;101356.16;4975973;29;20035;-64
2023/08/24 07:43:43;;;;;;;10.48;4.25;;;;;;;16.93;81.23;101368.91;4981169;28;20026;-65
2023/08/24 07:46:09;;;;;;;11.33;4.40;;;;;;;16.89;81.21;101346.94;4981594;28;20071;-66
2023/08/24 07:48:35;;;;;;;9.13;4.60;;;;;;;16.95;81.29;101359.63;4981856;28;20083;-65
2023/08/24 07:51:00;;;;;;;9.30;5.03;;;;;;;16.64;80.60;101329.44;4982010;28;20084;-66
2023/08/24 07:53:26;;;;;;;6.63;4.20;;;;;;;16.64;81.44;101340.19;4981742;28;20047;-64
2023/08/24 07:55:53;;;;;;;7.97;4.37;;;;;;;16.97;82.02;101381.78;4981624;28;20033;-66
2023/08/24 07:58:19;;;;;;;10.15;6.47;;;;;;;17.21;81.57;101377.91;4980215;28;20034;-65
2023/08/24 08:00:44;;;;;;;9.45;4.40;;;;;;;16.97;80.47;101333.34;4980760;29;20035;-66
2023/08/24 08:03:10;;;;;;;12.02;5.28;;;;;;;17.18;80.20;101358.63;4965026;29;20059;-64
2023/08/24 08:05:35;;;;;;;5.85;4.32;;;;;;;16.90;80.83;101316.31;4981604;29;20045;-66
2023/08/24 08:08:00;;;;;;;9.48;6.05;;;;;;;17.24;81.08;101371.31;4978456;28;20058;-63
2023/08/24 08:10:26;;;;;;;7.30;4.18;;;;;;;17.42;81.46;101377.09;4973009;29;20027;-63
2023/08/24 08:12:52;;;;;;;9.13;4.75;;;;;;;17.65;79.87;101380.44;4972144;29;20113;-63
2023/08/24 08:15:17;;;;;;;8.18;4.13;;;;;;;17.53;78.82;101373.06;4972572;29;20035;-65
2023/08/24 08:17:43;;;;;;;7.22;4.80;;;;;;;17.43;80.26;101380.63;4965116;29;20070;-64
2023/08/24 08:20:08;;;;;;;12.10;4.70;;;;;;;17.36;80.03;101353.66;4973348;29;20027;-66
2023/08/24 08:22:38;;;;;;;8.57;4.88;;;;;;;17.71;79.52;101378.00;4964352;28;20102;-64
2023/08/24 08:25:04;;;;;;;7.07;4.22;;;;;;;17.78;78.59;101377.03;4980483;28;20035;-68
2023/08/24 08:27:30;;;;;;;7.93;4.15;;;;;;;17.85;78.36;101385.16;4981375;28;20057;-65
2023/08/24 08:29:56;;;;;;;7.88;5.00;;;;;;;17.77;78.28;101386.16;4981087;28;20023;-65
2023/08/24 08:32:21;;;;;;;7.90;3.80;;;;;;;17.62;78.57;101364.63;4981196;28;20019;-65
2023/08/24 08:34:47;;;;;;;5.07;4.13;;;;;;;17.73;78.33;101373.25;4981168;28;20016;-67
2023/08/24 08:37:12;;;;;;;6.05;3.88;;;;;;;17.81;79.11;101375.81;4981061;28;20051;-67
2023/08/24 08:39:38;;;;;;;7.82;3.55;;;;;;;17.81;78.07;101379.34;4980516;28;20056;-66
2023/08/24 08:42:03;;;;;;;11.80;3.45;;;;;;;17.67;78.32;101365.94;4980568;28;20031;-66
2023/08/24 08:44:34;;;;;;;6.07;4.13;;;;;;;17.81;77.52;101375.81;4980911;28;20011;-66
2023/08/24 08:47:00;;;;;;;10.88;5.35;;;;;;;17.92;78.06;101367.19;4980698;28;20038;-65
2023/08/24 08:49:26;;;;;;;9.15;4.07;;;;;;;18.14;76.50;101368.78;4978495;28;20066;-64
2023/08/24 08:51:52;;;;;;;6.30;3.47;;;;;;;18.10;74.59;101359.44;4978195;29;20024;-64
2023/08/24 08:54:18;;;;;;;9.68;4.45;;;;;;;18.07;76.41;101356.31;4957865;29;20050;-66
2023/08/24 08:56:44;;;;;;;7.18;4.10;;;;;;;18.08;76.03;101364.19;4971475;29;20059;-64
2023/08/24 08:59:14;;;;;;;8.25;3.80;;;;;;;18.11;75.70;101362.97;4977170;29;20086;-65
2023/08/24 09:01:40;;;;;;;5.60;3.20;;;;;;;18.17;75.68;101360.31;4979917;28;20024;-64
2023/08/24 09:04:07;;;;;;;7.40;3.42;;;;;;;18.43;74.13;101366.88;4976992;28;20094;-68
2023/08/24 09:06:33;;;;;;;14.68;3.85;;;;;;;18.60;72.54;101362.00;4964378;29;20058;-64
2023/08/24 09:09:00;;;;;;;6.50;3.75;;;;;;;18.85;72.29;101352.38;4978527;29;20067;-65
2023/08/24 09:11:26;;;;;;;6.57;4.00;;;;;;;19.09;70.80;101359.09;4972999;29;20058;-64
2023/08/24 09:13:51;;;;;;;7.82;4.10;;;;;;;19.00;71.25;101363.00;4958370;29;20043;-66
2023/08/24 09:16:17;;;;;;;6.10;4.05;;;;;;;18.76;71.33;101357.09;4973783;29;20081;-67
2023/08/24 09:18:45;;;;;;;11.43;3.78;;;;;;;18.41;71.94;101333.91;4980341;28;20051;-66
2023/08/24 09:21:12;;;;;;;9.38;3.65;;;;;;;18.30;72.00;101350.66;4979959;28;20638;-65
2023/08/24 09:23:44;;;;;;;9.10;5.05;;;;;;;18.25;73.20;101344.00;4980084;28;20091;-66
2023/08/24 09:26:10;;;;;;;7.55;4.10;;;;;;;18.29;73.88;101332.81;4973032;29;20122;-64
2023/08/24 09:28:36;;;;;;;7.70;4.10;;;;;;;18.61;72.31;101353.72;4967518;29;20055;-64
2023/08/24 09:31:02;;;;;;;5.43;3.30;;;;;;;18.66;71.78;101356.66;4969891;29;20034;-66
2023/08/24 09:33:29;;;;;;;6.93;2.97;;;;;;;18.72;70.52;101352.31;4977211;29;20035;-65
2023/08/24 09:36:01;;;;;;;6.90;3.55;;;;;;;18.75;70.95;101349.22;4979659;28;20042;-67
2023/08/24 09:38:27;;;;;;;5.32;3.50;;;;;;;18.80;71.64;101334.13;4979544;28;20038;-66
2023/08/24 09:40:54;;;;;;;7.72;4.20;;;;;;;18.46;70.99;101242.44;4979333;29;20078;-66
2023/08/24 09:43:20;;;;;;;7.50;4.00;;;;;;;19.21;69.38;101332.31;4977745;29;20369;-66
2023/08/24 09:45:50;;;;;;;10.70;3.72;;;;;;;19.05;69.08;101328.97;4978403;29;20075;-64
2023/08/24 09:48:17;;;;;;;5.28;3.72;;;;;;;18.97;70.22;101337.25;4978642;29;20019;-65
2023/08/24 09:50:45;;;;;;;8.05;3.90;;;;;;;18.70;70.07;101320.16;4979341;28;20018;-67
2023/08/24 09:53:18;;;;;;;7.60;3.90;;;;;;;18.68;72.03;101326.78;4979031;28;20050;-65
2023/08/24 09:55:49;;;;;;;5.47;3.85;;;;;;;18.74;71.47;101321.41;4978963;28;20023;-67
2023/08/24 09:58:15;;;;;;;6.93;3.88;;;;;;;18.94;70.28;101328.75;4979685;29;20031;-66
2023/08/24 10:00:41;;;;;;;7.93;4.57;;;;;;;19.00;70.97;101327.91;4978957;28;20019;-64
2023/08/24 10:03:08;;;;;;;8.05;3.85;;;;;;;18.92;70.42;101314.63;4978836;29;20027;-67
2023/08/24 10:05:34;;;;;;;9.40;4.88;;;;;;;18.89;71.18;101288.88;4945989;29;20023;-64
2023/08/24 10:08:01;;;;;;;9.07;3.88;;;;;;;19.18;70.07;101318.19;4924351;29;20045;-64
2023/08/24 10:10:29;;;;;;;6.30;3.63;;;;;;;19.26;71.08;101321.75;4973585;29;20035;-65
2023/08/24 10:13:08;;;;;;;6.05;3.58;;;;;;;19.43;70.52;101310.34;4978769;29;20074;-65
2023/08/24 10:15:36;;;;;;;10.20;4.18;;;;;;;19.48;70.19;101313.25;4975101;29;20039;-64
2023/08/24 10:18:03;;;;;;;7.30;4.53;;;;;;;19.27;68.95;101320.69;4977695;29;20467;-67
2023/08/24 10:20:29;;;;;;;11.35;4.97;;;;;;;18.84;70.79;101310.25;4960877;29;20043;-67
2023/08/24 10:22:57;;;;;;;7.68;4.38;;;;;;;18.80;72.25;101326.03;4979119;28;20031;-65
2023/08/24 10:25:24;;;;;;;5.25;4.13;;;;;;;18.63;72.99;101305.81;4979551;28;20047;-64
2023/08/24 10:27:50;;;;;;;5.75;3.72;;;;;;;18.70;73.59;101317.44;4962094;29;20032;-65
2023/08/24 10:30:17;;;;;;;5.38;3.97;;;;;;;18.66;72.93;101313.50;4978434;28;20074;-63
2023/08/24 10:32:45;;;;;;;11.13;5.28;;;;;;;18.56;73.24;101296.84;4961932;29;20011;-65
2023/08/24 10:35:11;;;;;;;8.68;4.63;;;;;;;18.52;73.20;101318.00;4977781;28;20086;-64
2023/08/24 10:37:36;;;;;;;8.50;4.13;;;;;;;18.27;73.39;101312.28;4978808;28;20047;-66
2023/08/24 10:40:04;;;;;;;12.73;5.32;;;;;;;18.16;75.08;101312.81;4973392;29;20476;-64
2023/08/24 10:42:44;;;;;;;7.13;4.23;;;;;;;18.17;76.60;101286.69;4963611;29;20460;-64
2023/08/24 10:45:12;;;;;;;6.63;3.78;;;;;;;18.24;74.03;101293.81;4970334;29;20027;-67
2023/08/24 10:47:45;;;;;;;5.32;3.65;;;;;;;18.25;73.95;101290.06;4969677;28;20046;-64
2023/08/24 10:50:12;;;;;;;7.22;3.63;;;;;;;18.21;74.01;101288.81;4956085;29;20036;-65
2023/08/24 10:52:39;;;;;;;7.00;3.35;;;;;;;18.19;73.40;101280.06;4956894;29;20383;-66
2023/08/24 10:55:22;;;;;;;5.28;3.65;;;;;;;18.14;72.80;101269.06;4957636;29;20046;-65
2023/08/24 10:58:02;;;;;;;7.18;3.05;;;;;;;18.31;73.44;101295.69;4955370;29;20461;-64
2023/08/24 11:00:30;;;;;;;7.43;3.80;;;;;;;18.52;74.21;101292.88;4955718;29;20046;-66
2023/08/24 11:02:57;;;;;;;5.90;3.35;;;;;;;18.73;70.79;101290.06;4960131;28;20031;-66
2023/08/24 11:05:33;;;;;;;6.00;2.70;;;;;;;18.90;71.04;101290.53;4967544;29;20027;-65
2023/08/24 11:07:59;;;;;;;6.07;2.80;;;;;;;19.12;68.46;101297.44;4964794;28;20510;-68
2023/08/24 11:10:41;;;;;;;6.15;3.13;;;;;;;19.09;68.54;101291.63;4960751;28;20035;-65
2023/08/24 11:13:09;;;;;;;4.22;3.10;;;;;;;19.15;69.01;101293.50;4961385;29;20045;-66
2023/08/24 11:15:44;;;;;;;9.85;3.22;;;;;;;19.11;69.82;101301.16;4961385;29;20031;-65
2023/08/24 11:18:20;;;;;;;6.07;2.97;;;;;;;19.09;69.78;101286.22;4961082;29;20031;-65